Overijse, Belgium
Current Conditions -  °F | °C
As of 2:50 PM on Wednesday 22 Oct 2014 (Local Time) from EBBR Reporting Station
Rain Showers Rain Showers  
Wind Chill: 52°   Ceiling: 3000
Heat Index: 52°   Visibility: 6mi
Dew Point: 41°   Wind: 17mph
Humidity: 67%   Direction: 310°NW
Pressure: 30.18"   Gusts: NA
Location:  50.77°N, 4.53°E
Report Text: EBBR 221250Z 31015KT 9999 -SHRA BKN030 BKN043 11/05 Q1022 NOSIG
Loading
Personal Weather Stations






























Interactive Weather Map New forecast layout! Learn more

10-Day Weather Forecast

Advertisements
Track Severe Weather on mobile